Time;durP1;ratioP1;P1;durP2;ratioP2;P2;SDS_P1;SDS_P2;PMS_P1;PMS_P2;Temp;Humidity;BMP_temperature;BMP_pressure;BME280_temperature;BME280_humidity;BME280_pressure;Samples;Min_cycle;Max_cycle;Signal;HPM_P1;HPM_P2
2023/12/28 00:02:09;;;;;;;3.10;2.10;;;6.80;96.10;;;;;;5092989;28;20272;-87
2023/12/28 00:04:34;;;;;;;3.35;2.72;;;7.20;95.40;;;;;;5094839;28;20272;-87
2023/12/28 00:07:02;;;;;;;2.60;2.40;;;7.00;95.90;;;;;;5108820;27;20199;-87
2023/12/28 00:09:27;;;;;;;2.58;2.38;;;7.40;94.60;;;;;;5092002;28;20185;-87
2023/12/28 00:11:53;;;;;;;6.07;2.83;;;7.10;94.70;;;;;;5093747;28;20191;-87
2023/12/28 00:14:18;;;;;;;2.47;2.27;;;7.70;95.40;;;;;;5099976;28;20524;-87
2023/12/28 00:16:44;;;;;;;2.77;2.33;;;7.20;95.50;;;;;;5080869;28;20937;-87
2023/12/28 00:19:09;;;;;;;3.37;2.27;;;7.70;95.50;;;;;;5064079;28;20181;-88
2023/12/28 00:21:35;;;;;;;2.00;1.80;;;7.50;95.20;;;;;;5068488;28;20189;-88
2023/12/28 00:24:00;;;;;;;2.33;2.13;;;7.40;95.00;;;;;;5070306;28;20296;-88
2023/12/28 00:26:26;;;;;;;2.43;2.23;;;7.10;94.60;;;;;;5066962;28;20216;-88
2023/12/28 00:28:51;;;;;;;2.73;1.93;;;7.20;94.00;;;;;;5050926;28;20201;-88
2023/12/28 00:31:17;;;;;;;2.50;2.30;;;7.10;93.50;;;;;;5071170;28;20177;-88
2023/12/28 00:33:42;;;;;;;3.50;2.60;;;7.30;93.20;;;;;;5066468;28;20401;-88
2023/12/28 00:36:08;;;;;;;2.73;2.20;;;7.80;94.20;;;;;;5067518;28;20203;-88
2023/12/28 00:38:33;;;;;;;3.63;2.73;;;7.90;94.40;;;;;;5069341;28;20557;-88
2023/12/28 00:40:59;;;;;;;3.23;2.60;;;7.70;95.00;;;;;;5071639;28;20272;-88
2023/12/28 00:43:24;;;;;;;3.10;2.73;;;7.50;95.20;;;;;;5072820;28;20204;-88
2023/12/28 00:45:50;;;;;;;2.77;2.27;;;7.60;95.50;;;;;;5070604;28;20502;-88
2023/12/28 00:48:16;;;;;;;2.50;2.30;;;7.70;95.80;;;;;;5070250;28;20645;-88
2023/12/28 00:50:41;;;;;;;2.63;2.30;;;7.20;95.00;;;;;;5070963;28;20601;-88
2023/12/28 00:53:07;;;;;;;2.73;2.53;;;7.20;95.80;;;;;;5067999;28;20192;-87
2023/12/28 00:55:32;;;;;;;2.73;2.53;;;7.60;96.30;;;;;;5071246;28;20220;-88
2023/12/28 00:57:58;;;;;;;2.90;2.30;;;7.20;96.60;;;;;;5071510;28;20177;-88
2023/12/28 01:00:23;;;;;;;2.57;2.30;;;6.60;96.70;;;;;;5072309;28;20638;-88
2023/12/28 01:02:49;;;;;;;3.10;2.50;;;7.00;96.90;;;;;;5069938;28;20244;-88
2023/12/28 01:05:15;;;;;;;5.13;1.98;;;7.10;97.10;;;;;;5066336;28;20204;-88
2023/12/28 01:07:40;;;;;;;2.50;2.03;;;7.40;97.50;;;;;;5068998;28;20181;-88
2023/12/28 01:10:07;;;;;;;2.77;2.10;;;7.00;96.90;;;;;;5069134;28;20439;-88
2023/12/28 01:12:33;;;;;;;2.63;2.20;;;6.70;96.40;;;;;;5073154;28;20259;-88
2023/12/28 01:14:58;;;;;;;2.58;2.38;;;6.90;96.40;;;;;;5071315;28;20341;-88
2023/12/28 01:17:24;;;;;;;2.37;2.17;;;6.90;96.60;;;;;;5071020;28;20276;-88
2023/12/28 01:19:50;;;;;;;2.63;2.43;;;6.80;97.30;;;;;;5068100;28;20724;-88
2023/12/28 01:22:15;;;;;;;2.77;2.03;;;6.90;97.10;;;;;;5083822;28;20233;-88
2023/12/28 01:24:41;;;;;;;2.73;2.43;;;6.80;96.80;;;;;;5093837;28;20209;-87
2023/12/28 01:27:07;;;;;;;3.30;2.20;;;6.90;96.70;;;;;;5075321;28;20260;-88
2023/12/28 01:29:34;;;;;;;4.57;2.00;;;7.10;97.40;;;;;;5069815;28;20173;-88
2023/12/28 01:31:59;;;;;;;2.40;2.03;;;6.70;97.20;;;;;;5071996;28;20185;-88
2023/12/28 01:34:25;;;;;;;3.43;2.10;;;7.10;97.90;;;;;;5067891;28;20209;-88
2023/12/28 01:36:50;;;;;;;2.63;2.20;;;7.00;97.80;;;;;;5070531;28;20185;-89
2023/12/28 01:39:18;;;;;;;2.50;2.30;;;6.80;98.20;;;;;;5070313;28;20189;-88
2023/12/28 01:41:44;;;;;;;2.65;2.30;;;6.50;98.30;;;;;;5065727;28;20196;-88
2023/12/28 01:44:09;;;;;;;2.10;2.00;;;6.40;98.20;;;;;;5056041;28;20219;-88
2023/12/28 01:46:35;;;;;;;3.00;2.03;;;6.60;98.80;;;;;;5075973;28;20180;-88
2023/12/28 01:49:01;;;;;;;3.00;2.10;;;6.20;98.60;;;;;;5083317;28;20208;-88
2023/12/28 01:51:27;;;;;;;2.63;2.42;;;6.40;99.20;;;;;;5096960;28;20166;-88
2023/12/28 01:53:53;;;;;;;2.50;2.30;;;6.10;99.30;;;;;;5075754;28;20235;-88
2023/12/28 01:56:21;;;;;;;2.33;2.13;;;6.10;99.90;;;;;;5086076;28;20187;-88
2023/12/28 01:58:48;;;;;;;4.95;2.60;;;6.00;99.90;;;;;;5083231;28;20446;-88
2023/12/28 02:01:14;;;;;;;2.83;2.30;;;6.20;99.90;;;;;;5084595;28;20173;-88
2023/12/28 02:03:40;;;;;;;2.97;2.37;;;5.90;99.90;;;;;;5087792;28;20199;-88
2023/12/28 02:06:07;;;;;;;2.60;1.90;;;5.80;99.90;;;;;;5086471;28;20185;-88
2023/12/28 02:08:32;;;;;;;1.80;1.70;;;6.10;99.90;;;;;;5078390;28;20266;-88
2023/12/28 02:10:59;;;;;;;2.10;2.00;;;6.10;99.90;;;;;;5091421;28;20193;-87
2023/12/28 02:13:25;;;;;;;2.63;2.33;;;5.80;99.90;;;;;;5092120;28;20169;-88
2023/12/28 02:16:01;;;;;;;2.47;2.25;;;6.20;99.90;;;;;;5076412;28;20228;-87
2023/12/28 02:18:34;;;;;;;2.97;2.20;;;6.00;99.90;;;;;;5095588;28;20188;-87
2023/12/28 02:21:02;;;;;;;3.10;2.40;;;6.30;99.90;;;;;;5067543;28;20651;-88
2023/12/28 02:23:28;;;;;;;3.08;1.90;;;5.90;99.30;;;;;;5066736;28;20208;-88
2023/12/28 02:25:53;;;;;;;2.60;2.40;;;6.30;99.90;;;;;;5069794;28;20220;-88
2023/12/28 02:28:19;;;;;;;2.50;2.10;;;6.30;99.90;;;;;;5071696;28;20280;-88
2023/12/28 02:30:45;;;;;;;2.80;2.00;;;6.40;99.90;;;;;;5068328;28;20193;-88
2023/12/28 02:33:15;;;;;;;2.80;2.20;;;5.90;99.90;;;;;;5068886;28;20458;-88
2023/12/28 02:36:04;;;;;;;2.92;2.50;;;6.00;99.90;;;;;;5063326;28;20218;-88
2023/12/28 02:38:31;;;;;;;1.80;1.70;;;6.00;99.90;;;;;;5073700;28;20316;-87
2023/12/28 02:40:58;;;;;;;2.42;2.22;;;5.80;99.90;;;;;;5072205;28;20657;-88
2023/12/28 02:43:23;;;;;;;2.42;1.88;;;5.70;99.90;;;;;;5075660;28;20185;-87
2023/12/28 02:45:49;;;;;;;2.50;1.97;;;5.70;99.90;;;;;;5094556;28;20200;-88
2023/12/28 02:48:14;;;;;;;3.63;2.80;;;5.50;99.90;;;;;;5093319;28;20240;-88
2023/12/28 02:50:40;;;;;;;1.93;1.80;;;5.80;99.90;;;;;;5094594;28;20191;-87
2023/12/28 02:53:05;;;;;;;2.40;2.20;;;5.80;99.90;;;;;;5082390;28;20489;-88
2023/12/28 02:55:31;;;;;;;3.90;2.40;;;5.60;99.90;;;;;;5069856;28;20248;-88
2023/12/28 02:58:00;;;;;;;2.07;1.90;;;5.90;99.90;;;;;;5062071;28;20177;-88
2023/12/28 03:00:26;;;;;;;2.45;2.25;;;5.60;99.90;;;;;;5069593;28;20267;-88
2023/12/28 03:02:52;;;;;;;3.30;2.70;;;5.40;99.90;;;;;;5052069;28;20276;-88
2023/12/28 03:05:18;;;;;;;2.90;2.00;;;5.70;99.90;;;;;;5068615;28;20289;-88
2023/12/28 03:07:43;;;;;;;2.30;2.10;;;5.70;99.90;;;;;;5067522;28;20184;-88
2023/12/28 03:10:10;;;;;;;2.47;2.20;;;6.40;99.90;;;;;;5067794;28;20184;-88
2023/12/28 03:12:36;;;;;;;3.25;2.47;;;;;;;;;;5069509;28;20184;-88
2023/12/28 03:15:03;;;;;;;2.63;2.40;;;5.80;99.90;;;;;;5065734;28;20384;-87
2023/12/28 03:17:30;;;;;;;2.65;2.45;;;5.60;99.90;;;;;;5073601;28;20439;-88
2023/12/28 03:19:56;;;;;;;2.75;2.35;;;5.60;99.90;;;;;;5089713;28;20161;-88
2023/12/28 03:22:21;;;;;;;3.33;2.60;;;5.70;99.90;;;;;;5082725;28;20473;-88
2023/12/28 03:24:47;;;;;;;2.30;2.10;;;6.20;99.90;;;;;;5067776;28;20568;-88
2023/12/28 03:27:13;;;;;;;3.00;2.37;;;5.70;99.90;;;;;;5068018;28;20192;-88
2023/12/28 03:29:41;;;;;;;2.60;2.10;;;5.70;99.90;;;;;;5065792;28;20185;-88
2023/12/28 03:32:07;;;;;;;3.40;2.40;;;5.90;99.90;;;;;;5066811;28;20205;-87
2023/12/28 03:34:33;;;;;;;2.33;2.13;;;5.80;99.90;;;;;;5084234;28;20320;-88
2023/12/28 03:36:59;;;;;;;2.38;2.17;;;5.70;99.90;;;;;;5086075;28;20190;-87
2023/12/28 03:39:25;;;;;;;2.33;2.03;;;5.50;99.90;;;;;;5067016;28;20534;-87
2023/12/28 03:41:54;;;;;;;4.67;1.87;;;6.00;99.90;;;;;;5070723;28;20218;-87
2023/12/28 03:44:21;;;;;;;2.75;2.50;;;5.70;99.90;;;;;;5068792;28;20212;-87
2023/12/28 03:46:48;;;;;;;3.28;2.28;;;5.70;99.90;;;;;;5063047;28;20192;-87
2023/12/28 03:49:18;;;;;;;2.88;2.40;;;5.60;99.90;;;;;;5069219;28;20263;-87
2023/12/28 03:51:44;;;;;;;3.17;2.22;;;5.50;99.90;;;;;;5071360;28;20210;-87
2023/12/28 03:54:10;;;;;;;3.55;2.17;;;5.60;99.90;;;;;;5070396;28;20338;-86
2023/12/28 03:56:39;;;;;;;2.50;2.17;;;;;;;;;;5069882;28;20957;-87
2023/12/28 03:59:05;;;;;;;2.65;2.38;;;5.70;99.90;;;;;;5067349;28;20581;-87
2023/12/28 04:01:30;;;;;;;2.47;2.20;;;5.40;99.90;;;;;;5069064;28;20275;-87
2023/12/28 04:03:56;;;;;;;3.03;2.57;;;5.90;99.90;;;;;;5071815;28;20796;-86
2023/12/28 04:06:21;;;;;;;2.27;2.07;;;6.00;99.90;;;;;;5069762;28;20194;-87
2023/12/28 04:08:47;;;;;;;2.40;2.20;;;5.60;99.90;;;;;;5067837;28;20685;-87
2023/12/28 04:11:12;;;;;;;2.87;2.17;;;6.00;99.90;;;;;;5067778;28;20434;-87
2023/12/28 04:13:39;;;;;;;2.30;2.10;;;5.80;99.90;;;;;;5068148;28;20185;-87
2023/12/28 04:16:04;;;;;;;2.03;1.83;;;5.70;99.90;;;;;;5071886;28;20197;-87
2023/12/28 04:18:30;;;;;;;2.23;2.03;;;5.70;99.90;;;;;;5071799;28;20229;-87
2023/12/28 04:20:56;;;;;;;2.33;2.10;;;6.00;99.90;;;;;;5069601;28;20650;-87
2023/12/28 04:23:21;;;;;;;2.53;2.33;;;6.00;99.90;;;;;;5072214;28;21415;-87
2023/12/28 04:25:47;;;;;;;2.03;1.80;;;6.30;99.90;;;;;;5076789;28;20208;-87
2023/12/28 04:28:13;;;;;;;2.70;2.07;;;6.00;99.90;;;;;;5068727;28;20188;-87
2023/12/28 04:30:38;;;;;;;3.13;2.27;;;6.10;99.90;;;;;;5088370;28;20434;-87
2023/12/28 04:33:04;;;;;;;2.27;2.07;;;6.20;99.90;;;;;;5096226;28;20169;-87
2023/12/28 04:35:30;;;;;;;3.27;2.60;;;6.20;99.90;;;;;;5093955;28;20216;-87
2023/12/28 04:37:56;;;;;;;2.60;2.30;;;6.00;99.90;;;;;;5079612;28;20234;-87
2023/12/28 04:40:21;;;;;;;2.50;2.30;;;6.10;99.90;;;;;;5072027;28;20690;-87
2023/12/28 04:42:47;;;;;;;2.63;2.43;;;6.50;99.90;;;;;;5071167;28;20435;-87
2023/12/28 04:45:12;;;;;;;2.77;2.33;;;6.10;99.90;;;;;;5072214;28;20288;-86
2023/12/28 04:47:38;;;;;;;2.47;2.27;;;6.20;99.90;;;;;;5071813;28;20299;-87
2023/12/28 04:50:05;;;;;;;2.20;1.90;;;6.60;99.90;;;;;;5074518;28;20364;-87
2023/12/28 04:52:31;;;;;;;2.55;2.38;;;6.40;99.90;;;;;;5067965;28;20461;-87
2023/12/28 04:54:57;;;;;;;2.70;2.50;;;6.60;99.90;;;;;;5074588;28;20692;-87
2023/12/28 04:57:27;;;;;;;3.22;2.33;;;7.00;99.90;;;;;;5068598;28;20962;-87
2023/12/28 04:59:53;;;;;;;2.50;2.30;;;6.50;99.90;;;;;;5070419;28;20208;-87
2023/12/28 05:02:19;;;;;;;2.40;2.20;;;6.90;99.90;;;;;;5068055;28;20634;-87
2023/12/28 05:04:44;;;;;;;2.60;2.10;;;6.60;99.90;;;;;;5074770;28;20473;-87
2023/12/28 05:07:10;;;;;;;2.80;2.50;;;7.10;99.90;;;;;;5070017;28;20183;-87
2023/12/28 05:09:35;;;;;;;4.37;2.27;;;6.70;99.90;;;;;;5069612;28;20181;-86
2023/12/28 05:12:01;;;;;;;2.80;2.23;;;6.60;99.60;;;;;;5072393;28;20277;-87
2023/12/28 05:14:26;;;;;;;4.40;3.33;;;6.80;99.60;;;;;;5064868;28;20299;-87
2023/12/28 05:16:52;;;;;;;3.07;2.70;;;6.70;99.90;;;;;;5071503;28;20318;-87
2023/12/28 05:19:17;;;;;;;2.47;2.27;;;6.80;99.90;;;;;;5073463;28;20177;-87
2023/12/28 05:21:43;;;;;;;2.70;2.50;;;7.30;99.90;;;;;;5070516;28;20280;-87
2023/12/28 05:24:09;;;;;;;3.20;2.10;;;7.40;99.80;;;;;;5073921;28;20558;-87
2023/12/28 05:26:34;;;;;;;5.33;3.10;;;7.50;99.40;;;;;;5089021;28;20233;-86
2023/12/28 05:29:00;;;;;;;2.67;2.37;;;7.20;99.40;;;;;;5094074;28;20200;-87
2023/12/28 05:31:26;;;;;;;4.33;2.83;;;7.30;99.10;;;;;;5080245;28;20470;-87
2023/12/28 05:33:51;;;;;;;2.80;2.60;;;7.10;99.40;;;;;;5069628;28;20265;-87
2023/12/28 05:36:17;;;;;;;5.80;2.90;;;7.30;99.50;;;;;;5069638;28;20188;-87
2023/12/28 05:38:42;;;;;;;3.77;3.47;;;7.60;99.90;;;;;;5068208;28;20661;-87
2023/12/28 05:41:11;;;;;;;4.23;2.63;;;7.60;99.90;;;;;;5068594;28;20178;-87
2023/12/28 05:43:37;;;;;;;2.78;2.58;;;7.30;99.80;;;;;;5080770;28;20186;-86
2023/12/28 05:46:03;;;;;;;2.65;2.42;;;7.50;99.90;;;;;;5073386;28;20181;-87
2023/12/28 05:48:29;;;;;;;3.03;2.83;;;7.20;99.90;;;;;;5070821;28;20258;-87
2023/12/28 05:50:54;;;;;;;4.83;2.60;;;7.10;99.90;;;;;;5066432;28;20190;-87
2023/12/28 05:53:20;;;;;;;2.53;2.20;;;7.60;99.90;;;;;;5068753;28;20197;-87
2023/12/28 05:55:45;;;;;;;3.03;2.50;;;7.50;99.20;;;;;;5076309;28;20277;-87
2023/12/28 05:58:11;;;;;;;3.93;2.73;;;7.40;99.90;;;;;;5072936;28;20185;-87
2023/12/28 06:00:36;;;;;;;4.37;2.60;;;7.50;99.90;;;;;;5072511;28;20274;-87
2023/12/28 06:03:02;;;;;;;4.93;3.47;;;7.50;99.90;;;;;;5070914;28;20685;-86
2023/12/28 06:05:28;;;;;;;3.20;2.90;;;7.50;99.90;;;;;;5066322;28;20205;-87
2023/12/28 06:07:53;;;;;;;3.97;3.00;;;7.40;99.70;;;;;;5084695;28;20418;-87
2023/12/28 06:10:19;;;;;;;3.47;3.17;;;7.80;99.90;;;;;;5071101;28;20340;-87
2023/12/28 06:12:45;;;;;;;3.40;3.10;;;8.10;99.90;;;;;;5069636;28;20196;-87
2023/12/28 06:15:11;;;;;;;3.80;3.40;;;7.70;99.90;;;;;;5067441;28;20208;-87
2023/12/28 06:17:36;;;;;;;3.17;2.87;;;8.50;99.90;;;;;;5069389;28;20214;-87
2023/12/28 06:20:02;;;;;;;3.00;2.60;;;8.10;99.90;;;;;;5092183;28;20173;-87
2023/12/28 06:22:27;;;;;;;2.27;2.17;;;7.90;99.50;;;;;;5092956;28;20176;-87
2023/12/28 06:24:56;;;;;;;2.03;1.70;;;8.00;99.10;;;;;;5080434;28;20800;-87
2023/12/28 06:27:23;;;;;;;10.85;4.10;;;8.50;98.10;;;;;;5069543;28;20642;-87
2023/12/28 06:29:49;;;;;;;13.18;5.20;;;8.00;98.90;;;;;;5068893;28;20735;-87
2023/12/28 06:32:15;;;;;;;8.70;3.10;;;8.70;99.50;;;;;;5068894;28;20227;-87
2023/12/28 06:34:40;;;;;;;9.30;3.23;;;8.40;99.20;;;;;;5066792;28;20481;-87
2023/12/28 06:37:06;;;;;;;3.03;2.73;;;8.80;98.90;;;;;;5065990;28;20198;-87
2023/12/28 06:39:31;;;;;;;3.60;1.80;;;9.00;98.90;;;;;;5069914;28;20191;-86
2023/12/28 06:41:57;;;;;;;2.43;2.23;;;8.80;98.80;;;;;;5088781;28;20190;-87
2023/12/28 06:44:22;;;;;;;3.20;2.43;;;8.70;97.70;;;;;;5091681;28;20310;-87
2023/12/28 06:46:48;;;;;;;2.80;2.60;;;8.90;98.00;;;;;;5095532;28;20196;-87
2023/12/28 06:49:13;;;;;;;2.90;2.63;;;9.10;98.30;;;;;;5093863;28;20181;-87
2023/12/28 06:51:39;;;;;;;3.50;2.30;;;9.50;98.30;;;;;;5095126;28;20220;-87
2023/12/28 06:54:04;;;;;;;2.20;2.00;;;8.90;97.80;;;;;;5092762;28;20537;-87
2023/12/28 06:56:30;;;;;;;3.90;2.57;;;9.30;97.70;;;;;;5094110;28;20174;-87
2023/12/28 06:58:55;;;;;;;3.57;2.20;;;9.30;97.70;;;;;;5085862;28;20187;-88
2023/12/28 07:01:21;;;;;;;2.53;2.30;;;8.90;97.90;;;;;;5068623;28;20220;-87
2023/12/28 07:03:47;;;;;;;2.40;2.20;;;9.10;97.40;;;;;;5067595;28;20231;-87
2023/12/28 07:06:14;;;;;;;4.97;2.30;;;9.10;97.80;;;;;;5065678;28;20226;-87
2023/12/28 07:08:39;;;;;;;2.90;2.20;;;9.10;97.70;;;;;;5066471;28;20182;-87
2023/12/28 07:11:05;;;;;;;2.00;1.80;;;8.80;97.70;;;;;;5069064;28;20189;-87
2023/12/28 07:13:31;;;;;;;2.67;1.80;;;9.20;97.40;;;;;;5069335;28;20190;-88
2023/12/28 07:15:56;;;;;;;4.57;2.10;;;9.30;97.90;;;;;;5093748;28;20212;-87
2023/12/28 07:18:22;;;;;;;2.20;2.00;;;9.20;97.90;;;;;;5090758;28;20449;-87
2023/12/28 07:20:48;;;;;;;3.07;2.10;;;10.00;97.50;;;;;;5073842;28;20197;-87
2023/12/28 07:23:14;;;;;;;8.65;3.13;;;9.20;97.50;;;;;;5069936;28;20181;-87
2023/12/28 07:25:39;;;;;;;5.23;2.77;;;9.50;97.80;;;;;;5070098;28;21786;-87
2023/12/28 07:28:05;;;;;;;3.90;2.30;;;10.50;97.90;;;;;;5064178;28;20466;-87
2023/12/28 07:30:31;;;;;;;3.10;2.27;;;9.40;97.80;;;;;;5064952;28;20186;-87
2023/12/28 07:32:57;;;;;;;3.23;2.47;;;9.90;97.80;;;;;;5067739;28;20266;-87
2023/12/28 07:35:22;;;;;;;5.07;2.97;;;9.40;97.20;;;;;;5070512;28;20296;-87
2023/12/28 07:37:48;;;;;;;5.10;2.67;;;9.90;97.70;;;;;;5066717;28;20463;-88
2023/12/28 07:40:14;;;;;;;2.97;2.57;;;9.70;97.50;;;;;;5064149;28;20209;-87
2023/12/28 07:42:39;;;;;;;3.67;2.50;;;9.40;97.10;;;;;;5068493;28;20185;-87
2023/12/28 07:45:05;;;;;;;3.63;2.60;;;9.50;97.80;;;;;;5065785;28;20696;-87
2023/12/28 07:47:31;;;;;;;2.70;2.50;;;9.40;97.80;;;;;;5076022;28;20176;-87
2023/12/28 07:49:56;;;;;;;4.30;2.80;;;9.70;98.00;;;;;;5096493;28;20422;-87
2023/12/28 07:52:22;;;;;;;3.27;2.50;;;9.80;98.10;;;;;;5088884;28;20210;-87
2023/12/28 07:54:48;;;;;;;4.63;3.80;;;9.60;98.00;;;;;;5078456;28;20212;-87
2023/12/28 07:57:13;;;;;;;3.87;3.20;;;9.30;98.40;;;;;;5089912;28;20190;-87
2023/12/28 07:59:39;;;;;;;3.70;3.30;;;9.50;98.90;;;;;;5076444;28;20217;-87
2023/12/28 08:02:05;;;;;;;3.40;2.83;;;9.20;98.80;;;;;;5072598;28;20391;-87
2023/12/28 08:04:31;;;;;;;5.90;3.70;;;9.10;98.70;;;;;;5082072;28;20202;-87
2023/12/28 08:06:58;;;;;;;3.45;3.20;;;8.90;98.80;;;;;;5089299;28;20178;-87
2023/12/28 08:09:24;;;;;;;4.00;3.47;;;8.80;99.40;;;;;;5094494;28;20266;-87
2023/12/28 08:11:49;;;;;;;5.07;3.87;;;9.30;99.90;;;;;;5076902;28;20292;-87
2023/12/28 08:14:15;;;;;;;4.27;3.23;;;9.20;99.90;;;;;;5069682;28;20202;-87
2023/12/28 08:16:40;;;;;;;4.03;3.40;;;9.30;99.80;;;;;;5072424;28;20552;-87
2023/12/28 08:19:06;;;;;;;4.03;3.47;;;9.50;99.60;;;;;;5066688;28;20186;-87
2023/12/28 08:21:31;;;;;;;4.23;3.10;;;9.50;99.10;;;;;;5067873;28;20186;-87
2023/12/28 08:23:57;;;;;;;4.67;2.87;;;9.50;99.00;;;;;;5067076;28;20755;-87
2023/12/28 08:26:23;;;;;;;3.53;3.00;;;9.90;99.50;;;;;;5069788;28;20195;-87
2023/12/28 08:28:48;;;;;;;3.90;3.27;;;9.50;99.30;;;;;;5066987;28;20279;-87
2023/12/28 08:31:14;;;;;;;4.03;3.20;;;9.50;99.70;;;;;;5071107;28;20277;-87
2023/12/28 08:33:40;;;;;;;5.40;3.80;;;9.70;99.10;;;;;;5071719;28;20186;-87
2023/12/28 08:36:07;;;;;;;5.10;3.60;;;9.80;99.50;;;;;;5071342;28;20465;-88
2023/12/28 08:38:33;;;;;;;5.30;3.67;;;9.70;98.80;;;;;;5070005;28;20758;-87
2023/12/28 08:40:58;;;;;;;5.37;4.03;;;9.70;99.30;;;;;;5068678;28;20308;-87
2023/12/28 08:43:24;;;;;;;7.00;3.10;;;9.70;99.30;;;;;;5067154;28;20731;-87
2023/12/28 08:45:49;;;;;;;3.60;3.10;;;10.00;99.50;;;;;;5055102;28;20682;-87
2023/12/28 08:48:15;;;;;;;5.70;3.80;;;9.60;99.80;;;;;;5072834;28;20193;-87
2023/12/28 08:50:41;;;;;;;5.33;3.80;;;9.60;99.70;;;;;;5073560;28;20191;-87
2023/12/28 08:53:07;;;;;;;5.22;3.83;;;9.70;99.30;;;;;;5069508;28;20198;-87
2023/12/28 08:55:33;;;;;;;4.67;3.80;;;9.80;99.40;;;;;;5070141;28;20711;-87
2023/12/28 08:57:59;;;;;;;4.82;3.58;;;10.10;99.10;;;;;;5068719;28;20181;-87
2023/12/28 09:00:25;;;;;;;4.23;3.40;;;9.70;99.60;;;;;;5067945;28;20178;-87
2023/12/28 09:02:51;;;;;;;4.20;3.20;;;10.20;99.00;;;;;;5069514;28;20270;-87
2023/12/28 09:05:17;;;;;;;4.55;3.45;;;10.00;98.60;;;;;;5070843;28;20214;-87
2023/12/28 09:07:43;;;;;;;4.68;3.17;;;10.30;98.50;;;;;;5070700;28;20189;-87
2023/12/28 09:10:12;;;;;;;4.20;3.60;;;10.00;98.40;;;;;;5071408;28;20186;-88
2023/12/28 09:12:40;;;;;;;5.15;3.67;;;10.20;98.60;;;;;;5067290;28;20274;-86
2023/12/28 09:15:06;;;;;;;2.92;2.60;;;9.80;98.40;;;;;;5079028;28;20226;-87
2023/12/28 09:17:32;;;;;;;4.25;3.35;;;10.20;97.80;;;;;;5081334;28;20182;-87
2023/12/28 09:19:58;;;;;;;5.17;3.47;;;10.50;97.90;;;;;;5069978;28;20183;-87
2023/12/28 09:22:24;;;;;;;4.10;3.20;;;10.70;97.80;;;;;;5068789;28;20192;-87
2023/12/28 09:24:49;;;;;;;4.33;3.63;;;10.30;97.80;;;;;;5077492;28;21567;-88
2023/12/28 09:27:15;;;;;;;3.50;2.70;;;10.30;98.10;;;;;;5093943;28;20431;-88
2023/12/28 09:29:40;;;;;;;4.37;3.10;;;10.20;97.70;;;;;;5093794;28;20226;-88
2023/12/28 09:32:06;;;;;;;4.07;3.67;;;10.10;97.50;;;;;;5096217;28;20195;-88
2023/12/28 09:34:34;;;;;;;5.43;4.47;;;10.30;97.80;;;;;;5070397;28;20222;-87
2023/12/28 09:36:59;;;;;;;4.63;3.63;;;11.00;97.90;;;;;;5068507;28;20654;-87
2023/12/28 09:39:25;;;;;;;5.00;3.83;;;10.90;98.00;;;;;;5068767;28;20210;-88
2023/12/28 09:41:59;;;;;;;4.23;3.77;;;10.60;98.20;;;;;;5073575;28;20718;-88
2023/12/28 09:44:25;;;;;;;6.32;3.60;;;10.60;98.30;;;;;;5068498;28;20283;-88
2023/12/28 09:46:53;;;;;;;4.35;3.92;;;10.90;98.10;;;;;;5069755;28;20564;-88
2023/12/28 09:49:21;;;;;;;5.60;3.40;;;11.00;98.30;;;;;;5067707;28;20183;-90
2023/12/28 09:51:47;;;;;;;14.43;4.20;;;11.10;98.10;;;;;;5068437;28;20201;-87
2023/12/28 09:54:13;;;;;;;5.93;4.00;;;11.40;98.20;;;;;;5069985;28;20236;-87
2023/12/28 09:56:39;;;;;;;4.67;3.40;;;11.50;98.60;;;;;;5071214;28;20235;-87
2023/12/28 09:59:06;;;;;;;4.30;3.60;;;11.10;98.80;;;;;;5052648;28;20199;-88
2023/12/28 10:01:36;;;;;;;7.90;4.75;;;11.70;98.90;;;;;;5071344;28;20268;-87
2023/12/28 10:04:03;;;;;;;5.78;4.70;;;11.40;98.80;;;;;;5081115;28;20204;-87
2023/12/28 10:06:29;;;;;;;7.30;5.25;;;11.20;98.80;;;;;;5084345;28;20192;-87
2023/12/28 10:08:55;;;;;;;6.73;4.10;;;11.70;99.00;;;;;;5087359;28;20187;-87
2023/12/28 10:11:22;;;;;;;6.32;4.10;;;11.50;98.60;;;;;;5075787;28;20195;-88
2023/12/28 10:13:49;;;;;;;4.47;3.63;;;11.30;98.30;;;;;;5070879;28;20188;-87
2023/12/28 10:16:15;;;;;;;3.00;2.55;;;11.30;98.30;;;;;;5073421;28;20200;-88
2023/12/28 10:18:45;;;;;;;3.78;2.85;;;11.00;97.70;;;;;;5071265;28;20641;-86
2023/12/28 10:21:11;;;;;;;4.30;2.75;;;11.80;98.00;;;;;;5069689;28;20287;-87
2023/12/28 10:23:38;;;;;;;3.92;2.92;;;11.80;97.50;;;;;;5068231;28;20177;-88
2023/12/28 10:26:08;;;;;;;3.75;2.40;;;11.70;97.80;;;;;;5069428;28;20188;-88
2023/12/28 10:28:36;;;;;;;3.53;2.05;;;12.10;97.30;;;;;;5067762;28;20215;-87
2023/12/28 10:31:01;;;;;;;5.45;2.40;;;11.90;96.90;;;;;;5067547;28;20192;-88
2023/12/28 10:33:27;;;;;;;2.50;2.30;;;11.70;96.60;;;;;;5067011;28;20191;-87
2023/12/28 10:35:56;;;;;;;3.00;2.00;;;12.10;96.50;;;;;;5067672;28;20236;-87
2023/12/28 10:38:22;;;;;;;4.82;2.20;;;12.30;96.90;;;;;;5052345;28;20272;-88
2023/12/28 10:40:48;;;;;;;3.20;2.50;;;12.00;96.70;;;;;;5071555;28;20187;-87
2023/12/28 10:43:16;;;;;;;3.10;2.72;;;12.10;96.90;;;;;;5081923;28;20188;-88
2023/12/28 10:45:46;;;;;;;8.98;5.10;;;12.40;96.70;;;;;;5090646;28;20201;-87
2023/12/28 10:48:13;;;;;;;4.53;3.78;;;12.40;96.90;;;;;;5082987;28;20193;-88
2023/12/28 10:50:46;;;;;;;3.03;2.47;;;12.70;96.90;;;;;;5072549;28;20216;-87
2023/12/28 10:53:21;;;;;;;2.45;2.25;;;12.80;96.50;;;;;;5066514;28;20219;-88
2023/12/28 10:56:00;;;;;;;4.72;2.20;;;12.20;96.30;;;;;;5067678;28;20229;-88
2023/12/28 10:58:50;;;;;;;2.45;2.25;;;12.50;96.20;;;;;;5078333;28;20177;-88
2023/12/28 11:01:25;;;;;;;2.80;2.60;;;12.70;96.50;;;;;;5069698;28;20193;-87
2023/12/28 11:04:03;;;;;;;2.97;2.38;;;13.30;96.50;;;;;;5069077;28;20284;-87
2023/12/28 11:06:30;;;;;;;3.80;2.50;;;13.00;96.00;;;;;;5068671;28;20186;-88
2023/12/28 11:08:57;;;;;;;2.88;2.58;;;13.30;95.90;;;;;;5085210;28;20169;-88
2023/12/28 11:11:24;;;;;;;2.83;2.60;;;13.20;96.00;;;;;;5093377;28;20177;-88
2023/12/28 11:13:51;;;;;;;2.70;2.50;;;13.30;95.80;;;;;;5092460;28;20196;-88
2023/12/28 11:16:17;;;;;;;3.88;2.97;;;13.40;95.80;;;;;;5093621;28;20234;-88
2023/12/28 11:18:44;;;;;;;2.95;2.75;;;13.80;96.20;;;;;;5077518;28;20192;-88
2023/12/28 11:21:09;;;;;;;3.13;2.83;;;13.40;96.00;;;;;;5067969;28;20181;-88
2023/12/28 11:23:35;;;;;;;4.50;3.57;;;13.40;96.10;;;;;;5064378;28;20184;-87
2023/12/28 11:26:02;;;;;;;4.00;3.20;;;13.80;96.40;;;;;;5069833;28;20193;-88
2023/12/28 11:28:27;;;;;;;3.70;2.50;;;13.20;96.00;;;;;;5063653;28;20439;-88
2023/12/28 11:30:53;;;;;;;4.30;3.90;;;13.60;96.40;;;;;;5083216;28;20189;-88
2023/12/28 11:33:18;;;;;;;3.90;3.40;;;13.60;96.60;;;;;;5063713;28;20192;-88
2023/12/28 11:35:47;;;;;;;6.50;4.97;;;13.90;96.80;;;;;;5074696;28;20585;-88
2023/12/28 11:38:16;;;;;;;4.60;3.78;;;13.50;96.80;;;;;;5064930;28;20208;-87
2023/12/28 11:40:44;;;;;;;2.83;2.58;;;13.50;97.00;;;;;;5055040;28;20258;-88
2023/12/28 11:43:21;;;;;;;3.05;2.40;;;13.80;97.30;;;;;;5051712;28;20265;-87
2023/12/28 11:45:55;;;;;;;2.95;2.65;;;13.20;97.60;;;;;;5068623;28;20217;-88
2023/12/28 11:48:26;;;;;;;3.72;2.50;;;13.10;97.70;;;;;;5089282;28;20216;-88
2023/12/28 11:50:55;;;;;;;2.40;2.20;;;13.30;98.10;;;;;;5086673;28;20169;-88
2023/12/28 11:53:22;;;;;;;2.17;1.98;;;13.10;98.20;;;;;;5066864;28;20220;-88
2023/12/28 11:55:47;;;;;;;2.53;2.30;;;13.40;98.20;;;;;;5069300;28;20212;-88
2023/12/28 11:58:13;;;;;;;2.47;2.27;;;13.80;98.60;;;;;;5070744;28;20196;-87
2023/12/28 12:00:40;;;;;;;2.43;1.80;;;13.30;98.30;;;;;;5067436;28;20247;-87
2023/12/28 12:03:06;;;;;;;2.42;1.60;;;13.60;98.50;;;;;;5066857;28;20549;-88
2023/12/28 12:05:31;;;;;;;1.67;1.33;;;13.20;98.20;;;;;;5069865;28;20243;-88
2023/12/28 12:07:57;;;;;;;3.00;1.87;;;13.60;98.30;;;;;;5067597;28;20650;-88
2023/12/28 12:10:22;;;;;;;2.47;1.60;;;13.60;98.40;;;;;;5069761;28;20610;-88
2023/12/28 12:12:52;;;;;;;2.23;1.83;;;13.30;98.10;;;;;;5065844;28;20590;-88
2023/12/28 12:15:18;;;;;;;2.33;2.13;;;13.70;98.30;;;;;;5066160;28;20704;-87
2023/12/28 12:17:44;;;;;;;3.50;3.20;;;13.10;98.20;;;;;;5065554;28;20185;-88
2023/12/28 12:20:09;;;;;;;2.93;2.37;;;13.20;98.20;;;;;;5066615;28;20192;-88
2023/12/28 12:22:35;;;;;;;1.93;1.73;;;14.50;98.90;;;;;;5085517;28;20537;-87
2023/12/28 12:25:05;;;;;;;2.20;2.00;;;13.50;98.30;;;;;;5092004;28;20185;-88
2023/12/28 12:27:30;;;;;;;3.78;3.10;;;13.30;97.80;;;;;;5069572;28;20436;-87
2023/12/28 12:29:56;;;;;;;4.93;3.40;;;13.70;98.40;;;;;;5070459;28;20183;-87
2023/12/28 12:32:22;;;;;;;8.57;7.20;;;13.40;98.10;;;;;;5069542;28;20217;-88
2023/12/28 12:34:48;;;;;;;3.95;2.25;;;13.50;98.10;;;;;;5087572;28;20307;-88
2023/12/28 12:37:14;;;;;;;4.80;3.00;;;13.90;98.50;;;;;;5073527;28;20188;-88
2023/12/28 12:39:39;;;;;;;3.00;2.70;;;13.40;98.50;;;;;;5071926;28;20574;-88
2023/12/28 12:42:05;;;;;;;5.67;3.53;;;13.70;98.00;;;;;;5072964;28;20700;-88
2023/12/28 12:44:30;;;;;;;3.60;2.50;;;13.70;98.00;;;;;;5069276;28;20613;-88
2023/12/28 12:47:01;;;;;;;2.30;2.10;;;13.70;98.00;;;;;;5071461;28;20189;-88
2023/12/28 12:49:27;;;;;;;3.15;1.77;;;13.10;97.50;;;;;;5082816;28;20256;-88
2023/12/28 12:51:52;;;;;;;1.80;1.70;;;13.20;97.70;;;;;;5090030;28;20191;-88